• Join FlightAware (Why Join?)
  • Login
  • US Flag 
07:58PM EDT


 

Airport Tracker/Info


-or-


 

Live Flight TrackerFlight Track Log ✈ UPS1122 ✈ 13-Jun-2013 ✈ KPHL - KBDL

Flight Track Log - Related Links

Times and Time Zones

All times are in EDT time to prevent confusion due to time zone crossing. See the UPS1122 flight status page for this flight to view local times or setup timezone preferences in your user account.

Time Position Orientation Groundspeed Altitude Reporting Facility
EDT Latitude Longitude Course Direction KTS MPH feet Rate Location/Type
03:32AM 39.8667 -75.2500 90° East 160 184 800  Level Philadelphia TRACON
03:32AM 39.8667 -75.2333 90° East 156 180 1,600 1,680 Climbing Philadelphia TRACON
03:34AM 39.8881 -75.1022 78° East 224 258 4,400 1,920 Climbing New York Center
03:35AM 39.8606 -75.0031 110° East 265 305 7,200 2,700 Climbing New York Center
03:36AM 39.8350 -74.8961 107° East 296 341 9,800 2,160 Climbing New York Center
03:41AM 40.2270 -74.3720 107° East 410 472 21,000 1,980 Climbing FlightAware
03:42AM 40.2490 -74.3510 36° Northeast 408 470 21,000  Level FlightAware
03:42AM 40.3140 -74.2910 35° Northeast 414 476 21,000  Level FlightAware
03:43AM 40.3730 -74.2340 36° Northeast 416 479 21,000  Level FlightAware
03:44AM 40.4450 -74.1670 35° Northeast 419 482 21,000  Level FlightAware
03:44AM 40.5090 -74.1070 35° Northeast 422 486 21,000  Level FlightAware
03:45AM 40.5730 -74.0460 36° Northeast 423 487 21,000  Level FlightAware
03:46AM 40.6480 -73.9760 35° Northeast 423 487 21,000  Level FlightAware
03:47AM 40.7130 -73.9140 36° Northeast 419 482 21,000  Level FlightAware
03:47AM 40.7760 -73.8540 36° Northeast 418 481 21,000  Level FlightAware
03:48AM 40.8450 -73.7880 36° Northeast 416 479 21,000  Level FlightAware
03:49AM 40.9080 -73.7280 36° Northeast 415 478 21,000  Level FlightAware
03:49AM 40.9760 -73.6630 36° Northeast 414 476 21,000  Level FlightAware
03:50AM 41.0380 -73.6030 36° Northeast 413 475 21,000  Level FlightAware
03:51AM 41.1070 -73.5370 36° Northeast 412 474 21,000 -720 Level FlightAware
03:51AM 41.1640 -73.4680 42° Northeast 407 468 20,000 -2,520 Descending FlightAware
03:52AM 41.2180 -73.3960 45° Northeast 393 452 17,600 -3,540 Descending FlightAware
03:53AM 41.2810 -73.3280 39° Northeast 384 442 15,000 -3,360 Descending FlightAware
03:54AM 41.3340 -73.2710 39° Northeast 375 432 12,900 -1,680 Descending FlightAware
03:54AM 41.3820 -73.2180 40° Northeast 375 432 12,800 -120 Descending FlightAware
03:55AM 41.4330 -73.1640 38° Northeast 375 432 12,800 -1,680 Level FlightAware
03:56AM 41.5022 -73.1275 38° Northeast 315 362 10,300 -2,700 Descending Boston Center
03:57AM 41.5692 -73.0700 33° Northeast 295 339 8,000 -1,920 Descending Boston Center
03:58AM 41.6319 -73.0150 33° Northeast 281 323 6,500 -1,380 Descending Boston Center
03:59AM 41.6864 -72.9656 34° Northeast 261 300 5,300 -1,320 Descending Boston Center
04:00AM 41.7386 -72.9214 32° Northeast 233 268 3,900 -1,140 Descending Boston Center
04:01AM 41.7869 -72.8828 31° Northeast 208 239 3,100 -480 Descending Boston Center
04:02AM 41.8225 -72.8411 41° Northeast 192 221 3,000 -360 Descending Boston Center
04:03AM 41.8539 -72.8025 42° Northeast 161 185 2,400 -720 Descending Boston Center
04:04AM 41.8811 -72.7664 45° Northeast 145 167 1,600 -720 Descending Boston Center
04:05AM 41.9081 -72.7303 45° Northeast 138 159 1,000 -600 Descending Boston Center
04:06AM 41.9269 -72.7053 45° Northeast 132 152 400 -600 Descending Boston Center
04:09AM 41.9333 -72.6833 29° Northeast  Level FlightAware Approximate
04:16AM 41.9392 -72.6834 29° Northeast  Level Estimated
04:17AM 41.9333 -72.6833 29° Northeast  Level FlightAware Approximate
04:18AM 41.9392 -72.6834 29° Northeast  Level Estimated
04:19AM 41.9333 -72.6833 29° Northeast  Level FlightAware Approximate